sensor_id;sensor_type;location;lat;lon;timestamp;P1;durP1;ratioP1;P2;durP2;ratioP2
23594;SDS011;11975;47.674;9.472;2023-05-10T00:00:42;25.80;;;24.40;;
23594;SDS011;11975;47.674;9.472;2023-05-10T00:03:08;25.92;;;24.48;;
23594;SDS011;11975;47.674;9.472;2023-05-10T00:05:34;519.03;;;267.98;;
23594;SDS011;11975;47.674;9.472;2023-05-10T00:08:00;1999.90;;;999.90;;
23594;SDS011;11975;47.674;9.472;2023-05-10T00:10:26;1999.90;;;999.90;;
23594;SDS011;11975;47.674;9.472;2023-05-10T00:12:52;1999.90;;;999.90;;
23594;SDS011;11975;47.674;9.472;2023-05-10T00:15:18;1999.90;;;999.90;;
23594;SDS011;11975;47.674;9.472;2023-05-10T00:17:44;1999.90;;;999.90;;
23594;SDS011;11975;47.674;9.472;2023-05-10T00:20:10;1999.90;;;999.90;;
23594;SDS011;11975;47.674;9.472;2023-05-10T00:22:36;1999.90;;;999.90;;
23594;SDS011;11975;47.674;9.472;2023-05-10T00:25:02;1999.90;;;999.90;;
23594;SDS011;11975;47.674;9.472;2023-05-10T00:27:28;1999.90;;;999.90;;
23594;SDS011;11975;47.674;9.472;2023-05-10T00:29:54;1999.90;;;999.90;;
23594;SDS011;11975;47.674;9.472;2023-05-10T00:32:20;1999.90;;;999.90;;
23594;SDS011;11975;47.674;9.472;2023-05-10T00:34:46;25.10;;;23.70;;
23594;SDS011;11975;47.674;9.472;2023-05-10T00:37:12;24.50;;;23.10;;
23594;SDS011;11975;47.674;9.472;2023-05-10T00:39:38;24.90;;;23.50;;
23594;SDS011;11975;47.674;9.472;2023-05-10T00:42:04;25.25;;;23.85;;
23594;SDS011;11975;47.674;9.472;2023-05-10T00:44:30;25.60;;;24.20;;
23594;SDS011;11975;47.674;9.472;2023-05-10T00:46:56;26.20;;;24.70;;
23594;SDS011;11975;47.674;9.472;2023-05-10T00:49:22;26.20;;;24.70;;
23594;SDS011;11975;47.674;9.472;2023-05-10T00:51:48;25.70;;;24.30;;
23594;SDS011;11975;47.674;9.472;2023-05-10T00:54:15;26.30;;;24.70;;
23594;SDS011;11975;47.674;9.472;2023-05-10T00:56:41;26.17;;;24.67;;
23594;SDS011;11975;47.674;9.472;2023-05-10T00:59:09;26.38;;;24.77;;
23594;SDS011;11975;47.674;9.472;2023-05-10T01:01:35;26.50;;;25.00;;
23594;SDS011;11975;47.674;9.472;2023-05-10T01:04:01;26.05;;;24.55;;
23594;SDS011;11975;47.674;9.472;2023-05-10T01:06:27;26.63;;;25.13;;
23594;SDS011;11975;47.674;9.472;2023-05-10T01:08:53;25.63;;;24.23;;
23594;SDS011;11975;47.674;9.472;2023-05-10T01:11:19;26.88;;;25.35;;
23594;SDS011;11975;47.674;9.472;2023-05-10T01:13:46;26.70;;;25.20;;
23594;SDS011;11975;47.674;9.472;2023-05-10T01:16:15;1999.90;;;999.90;;
23594;SDS011;11975;47.674;9.472;2023-05-10T01:18:41;519.47;;;268.40;;
23594;SDS011;11975;47.674;9.472;2023-05-10T01:23:45;1999.90;;;999.90;;
23594;SDS011;11975;47.674;9.472;2023-05-10T01:32:08;519.90;;;268.77;;
23594;SDS011;11975;47.674;9.472;2023-05-10T01:34:42;27.30;;;25.80;;
23594;SDS011;11975;47.674;9.472;2023-05-10T01:37:15;1013.40;;;512.65;;
23594;SDS011;11975;47.674;9.472;2023-05-10T01:42:21;1999.90;;;999.90;;
23594;SDS011;11975;47.674;9.472;2023-05-10T01:44:52;1999.90;;;999.90;;
23594;SDS011;11975;47.674;9.472;2023-05-10T01:47:46;1999.90;;;999.90;;
23594;SDS011;11975;47.674;9.472;2023-05-10T01:50:19;1999.90;;;999.90;;
23594;SDS011;11975;47.674;9.472;2023-05-10T01:52:53;26.65;;;25.15;;
23594;SDS011;11975;47.674;9.472;2023-05-10T01:55:21;26.77;;;25.27;;
23594;SDS011;11975;47.674;9.472;2023-05-10T01:57:52;1999.90;;;999.90;;
23594;SDS011;11975;47.674;9.472;2023-05-10T02:00:20;1999.90;;;999.90;;
23594;SDS011;11975;47.674;9.472;2023-05-10T02:02:47;1999.90;;;999.90;;
23594;SDS011;11975;47.674;9.472;2023-05-10T02:05:14;1999.90;;;999.90;;
23594;SDS011;11975;47.674;9.472;2023-05-10T02:07:41;1999.90;;;999.90;;
23594;SDS011;11975;47.674;9.472;2023-05-10T02:10:07;1999.90;;;999.90;;
23594;SDS011;11975;47.674;9.472;2023-05-10T02:12:35;1999.90;;;999.90;;
23594;SDS011;11975;47.674;9.472;2023-05-10T02:15:02;1999.90;;;999.90;;
23594;SDS011;11975;47.674;9.472;2023-05-10T02:17:30;1999.90;;;999.90;;
23594;SDS011;11975;47.674;9.472;2023-05-10T02:19:58;1999.90;;;999.90;;
23594;SDS011;11975;47.674;9.472;2023-05-10T02:22:25;1999.90;;;999.90;;
23594;SDS011;11975;47.674;9.472;2023-05-10T02:27:18;26.37;;;24.87;;
23594;SDS011;11975;47.674;9.472;2023-05-10T02:29:45;26.38;;;24.88;;
23594;SDS011;11975;47.674;9.472;2023-05-10T02:32:12;1999.90;;;999.90;;
23594;SDS011;11975;47.674;9.472;2023-05-10T02:34:38;1999.90;;;999.90;;
23594;SDS011;11975;47.674;9.472;2023-05-10T02:37:04;1999.90;;;999.90;;
23594;SDS011;11975;47.674;9.472;2023-05-10T02:39:31;1013.13;;;512.38;;
23594;SDS011;11975;47.674;9.472;2023-05-10T02:41:57;1999.90;;;999.90;;
23594;SDS011;11975;47.674;9.472;2023-05-10T02:44:23;1999.90;;;999.90;;
23594;SDS011;11975;47.674;9.472;2023-05-10T02:46:52;1999.90;;;999.90;;
23594;SDS011;11975;47.674;9.472;2023-05-10T02:49:18;1999.90;;;999.90;;
23594;SDS011;11975;47.674;9.472;2023-05-10T02:51:46;1999.90;;;999.90;;
23594;SDS011;11975;47.674;9.472;2023-05-10T02:54:22;1999.90;;;999.90;;
23594;SDS011;11975;47.674;9.472;2023-05-10T02:56:51;1999.90;;;999.90;;
23594;SDS011;11975;47.674;9.472;2023-05-10T02:59:20;1999.90;;;999.90;;
23594;SDS011;11975;47.674;9.472;2023-05-10T03:01:46;1999.90;;;999.90;;
23594;SDS011;11975;47.674;9.472;2023-05-10T03:04:12;519.92;;;268.80;;
23594;SDS011;11975;47.674;9.472;2023-05-10T03:06:38;27.57;;;25.97;;
23594;SDS011;11975;47.674;9.472;2023-05-10T03:09:05;27.53;;;26.00;;
23594;SDS011;11975;47.674;9.472;2023-05-10T03:11:53;27.92;;;26.33;;
23594;SDS011;11975;47.674;9.472;2023-05-10T03:14:40;27.10;;;25.60;;
23594;SDS011;11975;47.674;9.472;2023-05-10T03:22:13;26.83;;;25.33;;
23594;SDS011;11975;47.674;9.472;2023-05-10T03:24:43;27.17;;;25.67;;
23594;SDS011;11975;47.674;9.472;2023-05-10T03:29:36;25.73;;;24.33;;
23594;SDS011;11975;47.674;9.472;2023-05-10T03:32:03;26.63;;;25.13;;
23594;SDS011;11975;47.674;9.472;2023-05-10T03:34:29;25.92;;;24.50;;
23594;SDS011;11975;47.674;9.472;2023-05-10T03:36:55;26.33;;;24.83;;
23594;SDS011;11975;47.674;9.472;2023-05-10T03:39:21;25.95;;;24.50;;
23594;SDS011;11975;47.674;9.472;2023-05-10T03:41:47;26.80;;;25.30;;
23594;SDS011;11975;47.674;9.472;2023-05-10T03:44:13;26.58;;;25.08;;
23594;SDS011;11975;47.674;9.472;2023-05-10T03:46:39;26.83;;;25.33;;
23594;SDS011;11975;47.674;9.472;2023-05-10T03:49:05;26.58;;;25.08;;
23594;SDS011;11975;47.674;9.472;2023-05-10T03:51:31;27.35;;;25.85;;
23594;SDS011;11975;47.674;9.472;2023-05-10T03:53:57;27.92;;;26.33;;
23594;SDS011;11975;47.674;9.472;2023-05-10T03:56:23;27.80;;;26.20;;
23594;SDS011;11975;47.674;9.472;2023-05-10T03:58:49;27.00;;;25.50;;
23594;SDS011;11975;47.674;9.472;2023-05-10T04:01:15;28.27;;;26.67;;
23594;SDS011;11975;47.674;9.472;2023-05-10T04:03:41;27.90;;;26.30;;
23594;SDS011;11975;47.674;9.472;2023-05-10T04:06:07;27.50;;;26.00;;
23594;SDS011;11975;47.674;9.472;2023-05-10T04:08:34;29.00;;;27.30;;
23594;SDS011;11975;47.674;9.472;2023-05-10T04:11:10;27.23;;;25.73;;
23594;SDS011;11975;47.674;9.472;2023-05-10T04:13:36;27.27;;;25.77;;
23594;SDS011;11975;47.674;9.472;2023-05-10T04:16:02;26.25;;;24.75;;
23594;SDS011;11975;47.674;9.472;2023-05-10T04:18:28;26.92;;;25.42;;
23594;SDS011;11975;47.674;9.472;2023-05-10T04:20:54;27.38;;;25.77;;
23594;SDS011;11975;47.674;9.472;2023-05-10T04:23:20;27.27;;;25.77;;
23594;SDS011;11975;47.674;9.472;2023-05-10T04:25:47;27.75;;;26.15;;
23594;SDS011;11975;47.674;9.472;2023-05-10T04:28:13;27.27;;;25.77;;
23594;SDS011;11975;47.674;9.472;2023-05-10T04:30:39;27.05;;;25.50;;
23594;SDS011;11975;47.674;9.472;2023-05-10T04:33:05;27.92;;;26.20;;
23594;SDS011;11975;47.674;9.472;2023-05-10T04:35:31;27.08;;;25.58;;
23594;SDS011;11975;47.674;9.472;2023-05-10T04:37:57;26.98;;;25.48;;
23594;SDS011;11975;47.674;9.472;2023-05-10T04:40:23;27.00;;;25.50;;
23594;SDS011;11975;47.674;9.472;2023-05-10T04:42:49;26.83;;;25.33;;
23594;SDS011;11975;47.674;9.472;2023-05-10T04:45:15;26.95;;;25.45;;
23594;SDS011;11975;47.674;9.472;2023-05-10T04:47:41;26.83;;;25.33;;
23594;SDS011;11975;47.674;9.472;2023-05-10T04:50:07;27.23;;;25.73;;
23594;SDS011;11975;47.674;9.472;2023-05-10T04:52:33;27.55;;;26.05;;
23594;SDS011;11975;47.674;9.472;2023-05-10T04:54:59;27.35;;;25.75;;
23594;SDS011;11975;47.674;9.472;2023-05-10T04:57:25;26.77;;;25.27;;
23594;SDS011;11975;47.674;9.472;2023-05-10T04:59:51;26.77;;;25.27;;
23594;SDS011;11975;47.674;9.472;2023-05-10T05:02:17;26.50;;;25.00;;
23594;SDS011;11975;47.674;9.472;2023-05-10T05:04:43;25.17;;;23.77;;
23594;SDS011;11975;47.674;9.472;2023-05-10T05:07:09;24.30;;;22.92;;
23594;SDS011;11975;47.674;9.472;2023-05-10T05:09:35;24.10;;;22.70;;
23594;SDS011;11975;47.674;9.472;2023-05-10T05:12:01;24.08;;;22.77;;
23594;SDS011;11975;47.674;9.472;2023-05-10T05:14:27;24.05;;;22.75;;
23594;SDS011;11975;47.674;9.472;2023-05-10T05:16:53;23.77;;;22.48;;
23594;SDS011;11975;47.674;9.472;2023-05-10T05:19:19;24.42;;;23.02;;
23594;SDS011;11975;47.674;9.472;2023-05-10T05:21:45;24.17;;;22.85;;
23594;SDS011;11975;47.674;9.472;2023-05-10T05:24:11;24.80;;;23.40;;
23594;SDS011;11975;47.674;9.472;2023-05-10T05:26:38;24.60;;;23.20;;
23594;SDS011;11975;47.674;9.472;2023-05-10T05:29:04;24.23;;;22.83;;
23594;SDS011;11975;47.674;9.472;2023-05-10T05:31:30;24.35;;;22.98;;
23594;SDS011;11975;47.674;9.472;2023-05-10T05:33:56;24.80;;;23.40;;
23594;SDS011;11975;47.674;9.472;2023-05-10T05:36:22;24.77;;;23.38;;
23594;SDS011;11975;47.674;9.472;2023-05-10T05:38:48;24.38;;;22.98;;
23594;SDS011;11975;47.674;9.472;2023-05-10T05:41:14;25.23;;;23.83;;
23594;SDS011;11975;47.674;9.472;2023-05-10T05:43:40;25.23;;;23.83;;
23594;SDS011;11975;47.674;9.472;2023-05-10T05:46:05;25.70;;;24.30;;
23594;SDS011;11975;47.674;9.472;2023-05-10T05:48:31;25.50;;;24.10;;
23594;SDS011;11975;47.674;9.472;2023-05-10T05:50:57;25.35;;;23.95;;
23594;SDS011;11975;47.674;9.472;2023-05-10T05:53:23;25.90;;;24.50;;
23594;SDS011;11975;47.674;9.472;2023-05-10T05:58:18;26.70;;;25.05;;
23594;SDS011;11975;47.674;9.472;2023-05-10T06:00:44;25.65;;;24.25;;
23594;SDS011;11975;47.674;9.472;2023-05-10T06:03:10;25.05;;;23.65;;
23594;SDS011;11975;47.674;9.472;2023-05-10T06:05:36;25.50;;;24.10;;
23594;SDS011;11975;47.674;9.472;2023-05-10T06:08:02;26.35;;;24.85;;
23594;SDS011;11975;47.674;9.472;2023-05-10T06:10:28;26.35;;;24.85;;
23594;SDS011;11975;47.674;9.472;2023-05-10T06:12:54;26.13;;;24.63;;
23594;SDS011;11975;47.674;9.472;2023-05-10T06:15:20;25.20;;;23.80;;
23594;SDS011;11975;47.674;9.472;2023-05-10T06:17:46;25.20;;;23.80;;
23594;SDS011;11975;47.674;9.472;2023-05-10T06:20:15;25.65;;;24.25;;
23594;SDS011;11975;47.674;9.472;2023-05-10T06:22:41;26.13;;;24.42;;
23594;SDS011;11975;47.674;9.472;2023-05-10T06:25:07;25.15;;;23.75;;
23594;SDS011;11975;47.674;9.472;2023-05-10T06:27:34;25.60;;;24.20;;
23594;SDS011;11975;47.674;9.472;2023-05-10T06:30:00;25.25;;;23.85;;
23594;SDS011;11975;47.674;9.472;2023-05-10T06:32:26;24.95;;;23.55;;
23594;SDS011;11975;47.674;9.472;2023-05-10T06:34:52;24.65;;;23.25;;
23594;SDS011;11975;47.674;9.472;2023-05-10T06:37:18;24.63;;;23.23;;
23594;SDS011;11975;47.674;9.472;2023-05-10T06:39:44;24.60;;;23.20;;
23594;SDS011;11975;47.674;9.472;2023-05-10T06:42:10;24.70;;;23.30;;
23594;SDS011;11975;47.674;9.472;2023-05-10T06:44:36;24.80;;;23.40;;
23594;SDS011;11975;47.674;9.472;2023-05-10T06:47:02;24.98;;;23.58;;
23594;SDS011;11975;47.674;9.472;2023-05-10T06:49:28;24.98;;;23.58;;
23594;SDS011;11975;47.674;9.472;2023-05-10T06:51:55;25.10;;;23.70;;
23594;SDS011;11975;47.674;9.472;2023-05-10T06:54:21;24.80;;;23.33;;
23594;SDS011;11975;47.674;9.472;2023-05-10T06:56:47;25.35;;;23.85;;
23594;SDS011;11975;47.674;9.472;2023-05-10T06:59:13;24.65;;;23.25;;
23594;SDS011;11975;47.674;9.472;2023-05-10T07:01:39;25.02;;;23.63;;
23594;SDS011;11975;47.674;9.472;2023-05-10T07:04:05;25.20;;;23.80;;
23594;SDS011;11975;47.674;9.472;2023-05-10T07:06:32;24.92;;;23.52;;
23594;SDS011;11975;47.674;9.472;2023-05-10T07:08:59;24.80;;;23.40;;
23594;SDS011;11975;47.674;9.472;2023-05-10T07:11:25;25.40;;;24.00;;
23594;SDS011;11975;47.674;9.472;2023-05-10T07:13:52;25.60;;;24.20;;
23594;SDS011;11975;47.674;9.472;2023-05-10T07:16:18;25.63;;;24.15;;
23594;SDS011;11975;47.674;9.472;2023-05-10T07:18:44;25.15;;;23.75;;
23594;SDS011;11975;47.674;9.472;2023-05-10T07:21:12;25.17;;;23.77;;
23594;SDS011;11975;47.674;9.472;2023-05-10T07:23:38;26.02;;;24.08;;
23594;SDS011;11975;47.674;9.472;2023-05-10T07:26:04;24.98;;;23.58;;
23594;SDS011;11975;47.674;9.472;2023-05-10T07:28:30;24.95;;;23.55;;
23594;SDS011;11975;47.674;9.472;2023-05-10T07:30:56;25.20;;;23.80;;
23594;SDS011;11975;47.674;9.472;2023-05-10T07:33:22;24.67;;;23.27;;
23594;SDS011;11975;47.674;9.472;2023-05-10T07:35:49;24.77;;;23.38;;
23594;SDS011;11975;47.674;9.472;2023-05-10T07:38:15;25.58;;;24.17;;
23594;SDS011;11975;47.674;9.472;2023-05-10T07:40:41;25.10;;;23.70;;
23594;SDS011;11975;47.674;9.472;2023-05-10T07:43:07;24.92;;;23.52;;
23594;SDS011;11975;47.674;9.472;2023-05-10T07:45:33;24.48;;;23.08;;
23594;SDS011;11975;47.674;9.472;2023-05-10T07:47:59;25.00;;;23.48;;
23594;SDS011;11975;47.674;9.472;2023-05-10T07:50:25;24.77;;;23.38;;
23594;SDS011;11975;47.674;9.472;2023-05-10T07:52:51;24.80;;;23.40;;
23594;SDS011;11975;47.674;9.472;2023-05-10T07:55:18;24.77;;;23.38;;
23594;SDS011;11975;47.674;9.472;2023-05-10T07:57:44;25.45;;;23.95;;
23594;SDS011;11975;47.674;9.472;2023-05-10T08:00:12;23.75;;;22.35;;
23594;SDS011;11975;47.674;9.472;2023-05-10T08:02:38;22.90;;;21.60;;
23594;SDS011;11975;47.674;9.472;2023-05-10T08:05:04;22.42;;;21.17;;
23594;SDS011;11975;47.674;9.472;2023-05-10T08:07:31;22.67;;;21.37;;
23594;SDS011;11975;47.674;9.472;2023-05-10T08:09:57;21.88;;;20.67;;
23594;SDS011;11975;47.674;9.472;2023-05-10T08:12:22;22.40;;;21.13;;
23594;SDS011;11975;47.674;9.472;2023-05-10T08:14:48;21.30;;;20.10;;
23594;SDS011;11975;47.674;9.472;2023-05-10T08:17:14;20.90;;;19.70;;
23594;SDS011;11975;47.674;9.472;2023-05-10T08:19:40;20.95;;;19.75;;
23594;SDS011;11975;47.674;9.472;2023-05-10T08:22:06;20.15;;;19.05;;
23594;SDS011;11975;47.674;9.472;2023-05-10T08:24:32;20.27;;;19.17;;
23594;SDS011;11975;47.674;9.472;2023-05-10T08:27:00;20.05;;;18.95;;
23594;SDS011;11975;47.674;9.472;2023-05-10T08:29:26;20.13;;;19.02;;
23594;SDS011;11975;47.674;9.472;2023-05-10T08:31:52;20.10;;;19.00;;
23594;SDS011;11975;47.674;9.472;2023-05-10T08:34:18;19.92;;;18.83;;
23594;SDS011;11975;47.674;9.472;2023-05-10T08:36:44;20.27;;;19.17;;
23594;SDS011;11975;47.674;9.472;2023-05-10T08:39:10;19.98;;;18.88;;
23594;SDS011;11975;47.674;9.472;2023-05-10T08:41:36;19.95;;;18.85;;
23594;SDS011;11975;47.674;9.472;2023-05-10T08:44:05;19.48;;;18.38;;
23594;SDS011;11975;47.674;9.472;2023-05-10T08:46:33;19.13;;;18.08;;
23594;SDS011;11975;47.674;9.472;2023-05-10T08:49:04;19.35;;;18.25;;
23594;SDS011;11975;47.674;9.472;2023-05-10T08:51:35;19.20;;;18.13;;
23594;SDS011;11975;47.674;9.472;2023-05-10T08:54:05;18.67;;;17.67;;
23594;SDS011;11975;47.674;9.472;2023-05-10T08:56:31;19.05;;;18.02;;
23594;SDS011;11975;47.674;9.472;2023-05-10T08:58:57;18.80;;;17.80;;
23594;SDS011;11975;47.674;9.472;2023-05-10T09:01:23;18.80;;;17.80;;
23594;SDS011;11975;47.674;9.472;2023-05-10T09:03:49;19.10;;;18.10;;
23594;SDS011;11975;47.674;9.472;2023-05-10T09:06:16;19.13;;;18.13;;
23594;SDS011;11975;47.674;9.472;2023-05-10T09:08:42;18.98;;;17.98;;
23594;SDS011;11975;47.674;9.472;2023-05-10T09:11:09;19.40;;;18.30;;
23594;SDS011;11975;47.674;9.472;2023-05-10T09:13:35;19.27;;;18.17;;
23594;SDS011;11975;47.674;9.472;2023-05-10T09:16:02;18.70;;;17.70;;
23594;SDS011;11975;47.674;9.472;2023-05-10T09:18:28;18.85;;;17.85;;
23594;SDS011;11975;47.674;9.472;2023-05-10T09:20:54;18.48;;;17.48;;
23594;SDS011;11975;47.674;9.472;2023-05-10T09:23:20;18.80;;;17.80;;
23594;SDS011;11975;47.674;9.472;2023-05-10T09:25:46;18.40;;;17.40;;
23594;SDS011;11975;47.674;9.472;2023-05-10T09:28:12;17.90;;;16.90;;
23594;SDS011;11975;47.674;9.472;2023-05-10T09:30:38;18.25;;;17.25;;
23594;SDS011;11975;47.674;9.472;2023-05-10T09:33:04;18.40;;;17.40;;
23594;SDS011;11975;47.674;9.472;2023-05-10T09:35:31;17.85;;;16.85;;
23594;SDS011;11975;47.674;9.472;2023-05-10T09:38:02;17.85;;;16.85;;
23594;SDS011;11975;47.674;9.472;2023-05-10T09:40:29;18.13;;;17.13;;
23594;SDS011;11975;47.674;9.472;2023-05-10T09:45:25;18.67;;;17.67;;
23594;SDS011;11975;47.674;9.472;2023-05-10T09:47:52;18.27;;;17.27;;
23594;SDS011;11975;47.674;9.472;2023-05-10T09:50:19;18.60;;;17.60;;
23594;SDS011;11975;47.674;9.472;2023-05-10T09:55:12;17.52;;;16.52;;
23594;SDS011;11975;47.674;9.472;2023-05-10T09:57:39;18.42;;;17.42;;
23594;SDS011;11975;47.674;9.472;2023-05-10T10:00:05;17.95;;;16.95;;
23594;SDS011;11975;47.674;9.472;2023-05-10T10:04:58;18.30;;;17.30;;
23594;SDS011;11975;47.674;9.472;2023-05-10T10:07:26;18.00;;;17.00;;
23594;SDS011;11975;47.674;9.472;2023-05-10T10:09:52;18.25;;;17.25;;
23594;SDS011;11975;47.674;9.472;2023-05-10T10:12:19;18.65;;;17.65;;
23594;SDS011;11975;47.674;9.472;2023-05-10T10:14:48;18.23;;;17.23;;
23594;SDS011;11975;47.674;9.472;2023-05-10T10:17:16;18.30;;;17.30;;
23594;SDS011;11975;47.674;9.472;2023-05-10T10:19:42;18.15;;;17.15;;
23594;SDS011;11975;47.674;9.472;2023-05-10T10:22:09;18.23;;;17.23;;
23594;SDS011;11975;47.674;9.472;2023-05-10T10:24:38;18.08;;;17.08;;
23594;SDS011;11975;47.674;9.472;2023-05-10T10:27:16;18.00;;;17.00;;
23594;SDS011;11975;47.674;9.472;2023-05-10T10:29:49;18.05;;;17.05;;
23594;SDS011;11975;47.674;9.472;2023-05-10T10:35:18;17.63;;;16.63;;
23594;SDS011;11975;47.674;9.472;2023-05-10T10:37:45;17.80;;;16.80;;
23594;SDS011;11975;47.674;9.472;2023-05-10T10:42:51;17.70;;;16.70;;
23594;SDS011;11975;47.674;9.472;2023-05-10T10:45:17;18.00;;;16.90;;
23594;SDS011;11975;47.674;9.472;2023-05-10T10:47:43;18.30;;;17.02;;
23594;SDS011;11975;47.674;9.472;2023-05-10T10:50:10;17.65;;;16.65;;
23594;SDS011;11975;47.674;9.472;2023-05-10T10:52:39;18.08;;;17.08;;
23594;SDS011;11975;47.674;9.472;2023-05-10T10:55:06;18.05;;;17.05;;
23594;SDS011;11975;47.674;9.472;2023-05-10T11:00:19;17.17;;;16.27;;
23594;SDS011;11975;47.674;9.472;2023-05-10T11:07:57;18.05;;;17.05;;
23594;SDS011;11975;47.674;9.472;2023-05-10T11:10:24;17.73;;;16.73;;
23594;SDS011;11975;47.674;9.472;2023-05-10T11:15:33;18.88;;;17.77;;
23594;SDS011;11975;47.674;9.472;2023-05-10T11:17:59;18.90;;;17.60;;
23594;SDS011;11975;47.674;9.472;2023-05-10T11:20:32;18.33;;;17.33;;
23594;SDS011;11975;47.674;9.472;2023-05-10T11:23:11;18.23;;;17.02;;
23594;SDS011;11975;47.674;9.472;2023-05-10T11:25:42;18.08;;;17.08;;
23594;SDS011;11975;47.674;9.472;2023-05-10T11:28:09;18.42;;;17.42;;
23594;SDS011;11975;47.674;9.472;2023-05-10T11:30:39;17.85;;;16.85;;
23594;SDS011;11975;47.674;9.472;2023-05-10T11:33:05;18.05;;;17.05;;
23594;SDS011;11975;47.674;9.472;2023-05-10T11:35:38;17.02;;;16.13;;
23594;SDS011;11975;47.674;9.472;2023-05-10T11:38:05;17.88;;;16.88;;
23594;SDS011;11975;47.674;9.472;2023-05-10T11:40:38;18.30;;;17.30;;
23594;SDS011;11975;47.674;9.472;2023-05-10T11:43:05;17.88;;;16.88;;
23594;SDS011;11975;47.674;9.472;2023-05-10T11:45:34;17.77;;;16.77;;
23594;SDS011;11975;47.674;9.472;2023-05-10T11:48:00;17.17;;;16.27;;
23594;SDS011;11975;47.674;9.472;2023-05-10T11:50:27;17.60;;;16.60;;
23594;SDS011;11975;47.674;9.472;2023-05-10T11:52:53;18.07;;;17.07;;
23594;SDS011;11975;47.674;9.472;2023-05-10T11:55:20;18.30;;;17.30;;
23594;SDS011;11975;47.674;9.472;2023-05-10T11:57:46;18.02;;;16.98;;
23594;SDS011;11975;47.674;9.472;2023-05-10T12:00:13;17.83;;;16.73;;
23594;SDS011;11975;47.674;9.472;2023-05-10T12:02:39;18.02;;;17.02;;
23594;SDS011;11975;47.674;9.472;2023-05-10T12:05:05;17.50;;;16.50;;
23594;SDS011;11975;47.674;9.472;2023-05-10T12:07:32;17.58;;;16.58;;
23594;SDS011;11975;47.674;9.472;2023-05-10T12:10:10;17.58;;;16.58;;
23594;SDS011;11975;47.674;9.472;2023-05-10T12:12:40;16.75;;;15.85;;
23594;SDS011;11975;47.674;9.472;2023-05-10T12:15:10;18.05;;;17.05;;
23594;SDS011;11975;47.674;9.472;2023-05-10T12:17:47;17.33;;;16.38;;
23594;SDS011;11975;47.674;9.472;2023-05-10T12:20:19;17.90;;;16.88;;
23594;SDS011;11975;47.674;9.472;2023-05-10T12:22:47;17.77;;;16.77;;
23594;SDS011;11975;47.674;9.472;2023-05-10T12:25:17;17.70;;;16.70;;
23594;SDS011;11975;47.674;9.472;2023-05-10T12:28:29;17.33;;;16.35;;
23594;SDS011;11975;47.674;9.472;2023-05-10T12:30:34;17.90;;;16.90;;
23594;SDS011;11975;47.674;9.472;2023-05-10T12:33:02;17.48;;;16.48;;
23594;SDS011;11975;47.674;9.472;2023-05-10T12:35:33;17.77;;;16.77;;
23594;SDS011;11975;47.674;9.472;2023-05-10T12:37:59;18.38;;;17.38;;
23594;SDS011;11975;47.674;9.472;2023-05-10T12:40:25;17.60;;;16.60;;
23594;SDS011;11975;47.674;9.472;2023-05-10T12:42:51;18.00;;;16.90;;
23594;SDS011;11975;47.674;9.472;2023-05-10T12:45:18;18.00;;;17.00;;
23594;SDS011;11975;47.674;9.472;2023-05-10T12:47:44;18.17;;;17.17;;
23594;SDS011;11975;47.674;9.472;2023-05-10T12:50:09;17.40;;;16.40;;
23594;SDS011;11975;47.674;9.472;2023-05-10T12:52:36;16.65;;;15.75;;
23594;SDS011;11975;47.674;9.472;2023-05-10T12:55:02;18.67;;;17.58;;
23594;SDS011;11975;47.674;9.472;2023-05-10T12:57:28;17.23;;;16.23;;
23594;SDS011;11975;47.674;9.472;2023-05-10T12:59:54;17.02;;;16.13;;
23594;SDS011;11975;47.674;9.472;2023-05-10T13:02:20;17.38;;;16.38;;
23594;SDS011;11975;47.674;9.472;2023-05-10T13:04:48;17.45;;;16.48;;
23594;SDS011;11975;47.674;9.472;2023-05-10T13:07:14;17.20;;;16.20;;
23594;SDS011;11975;47.674;9.472;2023-05-10T13:09:40;17.83;;;16.73;;
23594;SDS011;11975;47.674;9.472;2023-05-10T13:12:06;17.35;;;16.38;;
23594;SDS011;11975;47.674;9.472;2023-05-10T13:14:32;17.25;;;16.25;;
23594;SDS011;11975;47.674;9.472;2023-05-10T13:16:58;18.08;;;17.00;;
23594;SDS011;11975;47.674;9.472;2023-05-10T13:19:25;17.25;;;16.33;;
23594;SDS011;11975;47.674;9.472;2023-05-10T13:21:51;17.17;;;16.27;;
23594;SDS011;11975;47.674;9.472;2023-05-10T13:24:17;17.98;;;16.98;;
23594;SDS011;11975;47.674;9.472;2023-05-10T13:26:43;17.83;;;16.83;;
23594;SDS011;11975;47.674;9.472;2023-05-10T13:29:09;18.10;;;17.10;;
23594;SDS011;11975;47.674;9.472;2023-05-10T13:31:35;18.10;;;17.10;;
23594;SDS011;11975;47.674;9.472;2023-05-10T13:34:01;17.60;;;16.60;;
23594;SDS011;11975;47.674;9.472;2023-05-10T13:36:28;17.80;;;16.80;;
23594;SDS011;11975;47.674;9.472;2023-05-10T13:38:54;17.73;;;16.73;;
23594;SDS011;11975;47.674;9.472;2023-05-10T13:41:20;18.10;;;17.10;;
23594;SDS011;11975;47.674;9.472;2023-05-10T13:43:46;17.70;;;16.70;;
23594;SDS011;11975;47.674;9.472;2023-05-10T13:46:14;17.35;;;16.35;;
23594;SDS011;11975;47.674;9.472;2023-05-10T13:48:40;17.83;;;16.83;;
23594;SDS011;11975;47.674;9.472;2023-05-10T13:51:06;17.80;;;16.80;;
23594;SDS011;11975;47.674;9.472;2023-05-10T13:53:31;18.10;;;17.00;;
23594;SDS011;11975;47.674;9.472;2023-05-10T13:55:57;18.27;;;17.10;;
23594;SDS011;11975;47.674;9.472;2023-05-10T13:58:23;17.05;;;16.15;;
23594;SDS011;11975;47.674;9.472;2023-05-10T14:00:49;19.00;;;17.42;;
23594;SDS011;11975;47.674;9.472;2023-05-10T14:03:15;17.75;;;16.75;;
23594;SDS011;11975;47.674;9.472;2023-05-10T14:05:42;17.90;;;16.90;;
23594;SDS011;11975;47.674;9.472;2023-05-10T14:08:08;17.92;;;16.92;;
23594;SDS011;11975;47.674;9.472;2023-05-10T14:10:35;17.45;;;16.48;;
23594;SDS011;11975;47.674;9.472;2023-05-10T14:13:02;17.98;;;16.98;;
23594;SDS011;11975;47.674;9.472;2023-05-10T14:15:28;18.45;;;17.45;;
23594;SDS011;11975;47.674;9.472;2023-05-10T14:17:54;17.95;;;16.95;;
23594;SDS011;11975;47.674;9.472;2023-05-10T14:20:20;17.80;;;16.80;;
23594;SDS011;11975;47.674;9.472;2023-05-10T14:22:46;17.27;;;16.27;;
23594;SDS011;11975;47.674;9.472;2023-05-10T14:25:13;17.80;;;16.75;;
23594;SDS011;11975;47.674;9.472;2023-05-10T14:27:39;17.83;;;16.83;;
23594;SDS011;11975;47.674;9.472;2023-05-10T14:30:05;17.83;;;16.83;;
23594;SDS011;11975;47.674;9.472;2023-05-10T14:32:32;17.75;;;16.75;;
23594;SDS011;11975;47.674;9.472;2023-05-10T14:34:58;17.60;;;16.60;;
23594;SDS011;11975;47.674;9.472;2023-05-10T14:37:24;17.88;;;16.88;;
23594;SDS011;11975;47.674;9.472;2023-05-10T14:39:49;17.60;;;16.60;;
23594;SDS011;11975;47.674;9.472;2023-05-10T14:42:15;17.92;;;16.90;;
23594;SDS011;11975;47.674;9.472;2023-05-10T14:44:41;17.90;;;16.90;;
23594;SDS011;11975;47.674;9.472;2023-05-10T14:47:07;17.95;;;16.95;;
23594;SDS011;11975;47.674;9.472;2023-05-10T14:49:33;17.85;;;16.85;;
23594;SDS011;11975;47.674;9.472;2023-05-10T14:51:59;18.15;;;17.15;;
23594;SDS011;11975;47.674;9.472;2023-05-10T14:54:25;18.05;;;17.05;;
23594;SDS011;11975;47.674;9.472;2023-05-10T14:56:51;17.92;;;16.92;;
23594;SDS011;11975;47.674;9.472;2023-05-10T14:59:17;18.15;;;17.15;;
23594;SDS011;11975;47.674;9.472;2023-05-10T15:01:43;18.00;;;17.00;;